createdAt,value
2023-04-16T00:01:30.520Z,101247.93
2023-04-16T00:04:01.199Z,101250.00
2023-04-16T00:06:53.156Z,101251.55
2023-04-16T00:10:02.385Z,101256.73
2023-04-16T00:13:05.978Z,101257.48
2023-04-16T00:16:15.635Z,101257.11
2023-04-16T00:19:12.179Z,101262.48
2023-04-16T00:22:17.932Z,101265.41
2023-04-16T00:25:34.794Z,101273.03
2023-04-16T00:28:19.518Z,101275.98
2023-04-16T00:30:50.480Z,101276.51
2023-04-16T00:34:21.104Z,101278.44
2023-04-16T00:37:30.557Z,101277.27
2023-04-16T00:41:05.045Z,101274.22
2023-04-16T00:44:26.904Z,101277.10
2023-04-16T00:47:31.858Z,101275.94
2023-04-16T00:50:59.741Z,101282.11
2023-04-16T00:53:43.815Z,101283.89
2023-04-16T00:56:20.878Z,101284.42
2023-04-16T00:59:17.357Z,101282.02
2023-04-16T01:01:46.667Z,101281.87
2023-04-16T01:04:16.328Z,101285.20
2023-04-16T01:06:45.062Z,101285.39
2023-04-16T01:09:15.484Z,101283.83
2023-04-16T01:11:44.192Z,101283.15
2023-04-16T01:14:44.633Z,101283.17
2023-04-16T01:17:15.944Z,101284.22
2023-04-16T01:20:05.430Z,101280.57
2023-04-16T01:22:54.996Z,101283.36
2023-04-16T01:25:25.827Z,101281.80
2023-04-16T01:28:08.845Z,101283.02
2023-04-16T01:31:03.616Z,101277.98
2023-04-16T01:33:56.298Z,101279.88
2023-04-16T01:36:25.656Z,101279.19
2023-04-16T01:39:08.094Z,101279.20
2023-04-16T01:41:41.759Z,101279.55
2023-04-16T01:44:13.983Z,101278.16
2023-04-16T01:46:45.771Z,101276.94
2023-04-16T01:50:35.788Z,101279.38
2023-04-16T01:53:33.834Z,101277.13
2023-04-16T01:57:02.533Z,101273.99
2023-04-16T01:59:48.182Z,101276.77
2023-04-16T02:02:30.790Z,101273.83
2023-04-16T02:05:46.166Z,101274.17
2023-04-16T02:09:30.728Z,101279.75
2023-04-16T02:12:16.550Z,101280.09
2023-04-16T02:15:06.009Z,101281.83
2023-04-16T02:18:30.376Z,101282.38
2023-04-16T02:21:34.094Z,101284.98
2023-04-16T02:25:02.470Z,101285.69
2023-04-16T02:28:35.536Z,101285.52
2023-04-16T02:31:35.850Z,101284.48
2023-04-16T02:35:17.698Z,101280.84
2023-04-16T02:38:11.086Z,101282.59
2023-04-16T02:41:56.140Z,101283.80
2023-04-16T02:44:25.149Z,101282.23
2023-04-16T02:48:20.272Z,101282.06
2023-04-16T02:52:15.551Z,101283.61
2023-04-16T02:54:45.464Z,101286.92
2023-04-16T02:57:39.050Z,101286.75
2023-04-16T03:00:24.738Z,101292.30
2023-04-16T03:03:31.853Z,101294.20
2023-04-16T03:06:55.226Z,101292.80
2023-04-16T03:09:44.450Z,101289.31
2023-04-16T03:12:57.774Z,101292.09
2023-04-16T03:16:00.257Z,101291.41
2023-04-16T03:18:44.299Z,101296.25
2023-04-16T03:21:50.936Z,101299.70
2023-04-16T03:24:34.684Z,101299.16
2023-04-16T03:27:04.885Z,101301.58
2023-04-16T03:29:34.034Z,101304.71
2023-04-16T03:32:02.838Z,101306.96
2023-04-16T03:34:33.256Z,101306.41
2023-04-16T03:37:57.980Z,101312.69
2023-04-16T03:40:33.494Z,101315.81
2023-04-16T03:43:02.762Z,101319.11
2023-04-16T03:45:49.318Z,101323.98
2023-04-16T03:49:12.582Z,101327.28
2023-04-16T03:51:50.155Z,101325.04
2023-04-16T03:54:21.312Z,101328.69
2023-04-16T03:56:54.496Z,101328.38
2023-04-16T03:59:22.975Z,101330.10
2023-04-16T04:01:52.458Z,101332.37
2023-04-16T04:04:21.500Z,101335.52
2023-04-16T04:06:50.271Z,101337.45
2023-04-16T04:09:21.202Z,101341.63
2023-04-16T04:11:52.359Z,101336.93
2023-04-16T04:14:21.446Z,101334.48
2023-04-16T04:16:50.234Z,101331.38
2023-04-16T04:19:19.025Z,101333.98
2023-04-16T04:21:47.801Z,101336.58
2023-04-16T04:24:18.016Z,101335.20
2023-04-16T04:26:47.219Z,101337.28
2023-04-16T04:29:16.542Z,101335.89
2023-04-16T04:31:45.905Z,101336.63
2023-04-16T04:34:14.807Z,101337.00
2023-04-16T04:36:43.609Z,101338.59
2023-04-16T04:39:15.355Z,101337.22
2023-04-16T04:41:44.780Z,101339.16
2023-04-16T04:44:13.491Z,101340.90
2023-04-16T04:46:43.161Z,101340.73
2023-04-16T04:49:11.841Z,101343.89
2023-04-16T04:51:40.946Z,101340.25
2023-04-16T04:54:09.753Z,101341.99
2023-04-16T04:56:46.413Z,101345.31
2023-04-16T04:59:15.286Z,101347.60
2023-04-16T05:01:43.866Z,101342.20
2023-04-16T05:04:12.851Z,101344.13
2023-04-16T05:06:41.749Z,101348.99
2023-04-16T05:09:14.433Z,101346.57
2023-04-16T05:11:43.231Z,101350.07
2023-04-16T05:14:12.343Z,101352.69
2023-04-16T05:16:41.223Z,101356.70
2023-04-16T05:19:10.383Z,101357.74
2023-04-16T05:21:39.205Z,101354.61
2023-04-16T05:24:07.875Z,101357.91
2023-04-16T05:26:36.494Z,101355.63
2023-04-16T05:29:05.352Z,101353.72
2023-04-16T05:31:33.940Z,101357.02
2023-04-16T05:34:03.176Z,101355.79
2023-04-16T05:36:31.819Z,101350.38
2023-04-16T05:39:00.622Z,101354.02
2023-04-16T05:41:29.651Z,101357.33
2023-04-16T05:43:58.922Z,101359.08
2023-04-16T05:46:27.729Z,101362.02
2023-04-16T05:48:56.379Z,101363.21
2023-04-16T05:51:26.587Z,101362.50
2023-04-16T05:54:01.944Z,101363.00
2023-04-16T05:56:38.564Z,101366.10
2023-04-16T05:59:08.612Z,101361.35
2023-04-16T06:01:37.423Z,101369.92
2023-04-16T06:04:06.596Z,101366.42
2023-04-16T06:07:20.258Z,101367.39
2023-04-16T06:09:49.057Z,101364.89
2023-04-16T06:12:49.979Z,101368.86
2023-04-16T06:15:18.973Z,101372.80
2023-04-16T06:17:47.734Z,101374.66
2023-04-16T06:20:16.762Z,101383.74
2023-04-16T06:22:45.356Z,101383.37
2023-04-16T06:26:31.029Z,101384.66
2023-04-16T06:29:50.909Z,101389.46
2023-04-16T06:32:19.726Z,101390.98
2023-04-16T06:34:55.413Z,101397.18
2023-04-16T06:37:24.546Z,101392.73
2023-04-16T06:40:16.107Z,101392.84
2023-04-16T06:43:45.621Z,101386.96
2023-04-16T06:46:17.165Z,101381.14
2023-04-16T06:49:49.982Z,101378.49
2023-04-16T06:52:48.504Z,101379.77
2023-04-16T06:56:09.761Z,101381.85
2023-04-16T06:58:39.289Z,101378.81
2023-04-16T07:01:08.566Z,101374.02
2023-04-16T07:04:20.089Z,101372.56
2023-04-16T07:06:50.107Z,101379.96
2023-04-16T07:09:18.517Z,101382.67
2023-04-16T07:12:01.041Z,101384.89
2023-04-16T07:14:40.151Z,101383.77
2023-04-16T07:17:34.843Z,101385.45
2023-04-16T07:20:11.560Z,101389.00
2023-04-16T07:22:40.215Z,101396.65
2023-04-16T07:25:09.830Z,101399.34
2023-04-16T07:27:38.710Z,101394.48
2023-04-16T07:30:16.414Z,101383.24
2023-04-16T07:32:45.126Z,101381.89
2023-04-16T07:35:14.187Z,101378.42
2023-04-16T07:44:33.734Z,101379.80
2023-04-16T07:55:43.622Z,101387.30
2023-04-16T07:58:43.734Z,101386.31
2023-04-16T08:01:14.040Z,101387.67
2023-04-16T08:04:54.845Z,101390.91
2023-04-16T08:07:29.782Z,101391.68
2023-04-16T08:09:58.458Z,101391.72
2023-04-16T08:12:29.163Z,101396.80
2023-04-16T08:14:57.783Z,101397.45
2023-04-16T08:17:26.501Z,101392.59
2023-04-16T08:21:11.735Z,101394.13
2023-04-16T08:23:42.549Z,101389.98
2023-04-16T08:26:11.882Z,101386.05
2023-04-16T10:18:31.274Z,101429.66
2023-04-16T10:21:00.292Z,101425.49
2023-04-16T10:24:02.528Z,101425.31
2023-04-16T10:27:06.398Z,101434.42
2023-04-16T10:30:01.098Z,101429.58
2023-04-16T10:32:34.814Z,101430.42
2023-04-16T10:35:05.641Z,101427.97
2023-04-16T10:37:34.326Z,101428.14
2023-04-16T10:40:23.768Z,101427.30
2023-04-16T10:42:59.790Z,101438.15
2023-04-16T10:45:48.869Z,101436.64
2023-04-16T10:48:21.034Z,101436.39
2023-04-16T10:50:59.034Z,101435.27
2023-04-16T10:53:28.955Z,101436.40
2023-04-16T10:56:28.252Z,101434.21
2023-04-16T10:58:56.759Z,101435.09
2023-04-16T11:01:45.107Z,101431.37
2023-04-16T11:04:40.294Z,101433.39
2023-04-16T11:07:20.882Z,101427.57
2023-04-16T11:10:05.440Z,101431.28
2023-04-16T11:12:39.240Z,101430.79
2023-04-16T11:15:20.001Z,101427.77
2023-04-16T11:17:54.612Z,101426.02
2023-04-16T11:20:26.175Z,101426.81
2023-04-16T11:22:57.159Z,101425.86
2023-04-16T11:25:30.150Z,101421.94
2023-04-16T11:29:14.049Z,101421.46
2023-04-16T11:32:37.645Z,101423.59
2023-04-16T11:36:04.444Z,101426.88
2023-04-16T11:38:39.242Z,101430.89
2023-04-16T11:41:08.083Z,101429.38
2023-04-16T11:44:51.919Z,101428.53
2023-04-16T11:47:21.657Z,101426.75
2023-04-16T11:49:51.017Z,101427.06
2023-04-16T11:52:46.055Z,101434.50
2023-04-16T11:55:15.699Z,101434.66
2023-04-16T11:57:44.446Z,101431.54
2023-04-16T12:00:15.399Z,101431.89
2023-04-16T12:02:52.045Z,101436.09
2023-04-16T12:05:39.408Z,101434.81
2023-04-16T12:08:10.280Z,101439.15
2023-04-16T12:10:54.822Z,101439.73
2023-04-16T12:13:26.861Z,101437.80
2023-04-16T12:15:57.553Z,101432.06
2023-04-16T12:18:29.363Z,101429.42
2023-04-16T12:21:00.001Z,101426.68
2023-04-16T12:23:33.760Z,101425.37
2023-04-16T12:29:28.056Z,101436.05
2023-04-16T12:34:53.780Z,101444.52
2023-04-16T12:37:32.747Z,101448.38
2023-04-16T12:40:03.253Z,101446.48
2023-04-16T12:42:36.183Z,101440.55
2023-04-16T12:45:06.433Z,101441.41
2023-04-16T12:47:35.240Z,101434.64
2023-04-16T12:50:04.861Z,101436.72
2023-04-16T12:52:34.496Z,101435.35
2023-04-16T12:55:03.668Z,101434.13
2023-04-16T12:57:32.251Z,101429.08
2023-04-16T13:00:02.375Z,101423.50
2023-04-16T13:02:32.416Z,101419.64
2023-04-16T13:05:01.902Z,101422.27
2023-04-16T13:07:32.522Z,101416.68
2023-04-16T13:10:02.065Z,101412.48
2023-04-16T13:12:38.319Z,101413.59
2023-04-16T13:15:31.513Z,101415.17
2023-04-16T13:18:01.577Z,101415.91
2023-04-16T13:20:33.449Z,101416.63
2023-04-16T13:23:05.344Z,101418.37
2023-04-16T13:25:35.830Z,101416.27
2023-04-16T13:28:05.689Z,101416.96
2023-04-16T13:30:36.369Z,101424.63
2023-04-16T13:33:06.934Z,101427.77
2023-04-16T13:35:36.123Z,101433.52
2023-04-16T13:38:05.575Z,101430.73
2023-04-16T13:40:34.335Z,101427.23
2023-04-16T13:43:02.964Z,101426.73
2023-04-16T13:45:32.468Z,101424.95
2023-04-16T13:48:01.289Z,101424.64
2023-04-16T13:54:09.294Z,101424.30
2023-04-16T13:56:38.372Z,101425.33
2023-04-16T13:59:18.150Z,101427.08
2023-04-16T14:01:57.861Z,101423.56
2023-04-16T14:04:50.611Z,101421.63
2023-04-16T14:07:21.872Z,101422.46
2023-04-16T14:10:16.044Z,101426.47
2023-04-16T14:12:48.219Z,101431.18
2023-04-16T14:15:17.510Z,101434.66
2023-04-16T14:17:49.603Z,101430.30
2023-04-16T14:20:18.268Z,101422.61
2023-04-16T14:22:47.161Z,101422.77
2023-04-16T14:25:16.452Z,101420.33
2023-04-16T14:27:52.515Z,101420.66
2023-04-16T14:30:46.698Z,101416.48
2023-04-16T14:33:26.428Z,101411.42
2023-04-16T14:36:03.196Z,101417.55
2023-04-16T14:38:32.857Z,101413.34
2023-04-16T14:41:01.925Z,101420.33
2023-04-16T14:43:55.593Z,101418.54
2023-04-16T14:46:25.467Z,101422.19
2023-04-16T14:48:54.196Z,101422.19
2023-04-16T14:51:22.875Z,101425.52
2023-04-16T14:53:51.702Z,101428.86
2023-04-16T14:56:20.460Z,101430.98
2023-04-16T14:58:49.041Z,101428.20
2023-04-16T15:01:43.545Z,101429.08
2023-04-16T15:04:39.557Z,101430.48
2023-04-16T15:07:08.601Z,101432.57
2023-04-16T15:10:07.551Z,101432.05
2023-04-16T15:12:36.027Z,101433.61
2023-04-16T15:15:07.098Z,101431.33
2023-04-16T15:17:36.221Z,101433.95
2023-04-16T15:20:11.167Z,101431.84
2023-04-16T15:22:40.618Z,101430.77
2023-04-16T15:25:09.534Z,101424.83
2023-04-16T15:27:39.475Z,101420.64
2023-04-16T15:30:08.936Z,101423.73
2023-04-16T15:32:37.430Z,101424.59
2023-04-16T15:35:07.559Z,101426.70
2023-04-16T15:37:37.731Z,101436.48
2023-04-16T15:40:08.708Z,101436.32
2023-04-16T15:42:37.570Z,101441.38
2023-04-16T15:45:06.862Z,101441.02
2023-04-16T15:47:37.545Z,101438.21
2023-04-16T15:50:08.822Z,101434.73
2023-04-16T15:52:39.955Z,101439.98
2023-04-16T15:55:09.599Z,101439.98
2023-04-16T15:57:38.388Z,101438.41
2023-04-16T16:00:17.611Z,101435.80
2023-04-16T16:02:47.682Z,101437.05
2023-04-16T16:05:17.135Z,101439.87
2023-04-16T16:07:45.702Z,101442.30
2023-04-16T16:13:49.355Z,101439.88
2023-04-16T16:16:18.281Z,101433.77
2023-04-16T16:18:47.658Z,101432.57
2023-04-16T16:21:16.531Z,101435.91
2023-04-16T16:23:45.260Z,101435.56
2023-04-16T16:26:14.014Z,101437.33
2023-04-16T16:32:17.552Z,101446.75
2023-04-16T16:34:46.119Z,101457.95
2023-04-16T16:37:22.486Z,101463.00
2023-04-16T16:39:52.640Z,101453.73
2023-04-16T16:42:21.077Z,101447.64
2023-04-16T16:44:49.964Z,101446.95
2023-04-16T16:47:44.495Z,101450.29
2023-04-16T16:50:13.144Z,101454.51
2023-04-16T16:52:42.034Z,101454.35
2023-04-16T16:55:11.362Z,101453.84
2023-04-16T16:57:41.558Z,101455.77
2023-04-16T17:00:15.433Z,101458.20
2023-04-16T17:02:44.603Z,101457.85
2023-04-16T17:05:13.787Z,101454.89
2023-04-16T17:07:44.392Z,101457.52
2023-04-16T17:10:20.327Z,101461.02
2023-04-16T17:12:49.738Z,101464.67
2023-04-16T17:15:21.130Z,101465.38
2023-04-16T17:17:50.683Z,101469.04
2023-04-16T17:20:20.234Z,101469.21
2023-04-16T17:22:48.820Z,101472.54
2023-04-16T17:25:17.381Z,101476.38
2023-04-16T17:27:47.908Z,101476.20
2023-04-16T17:30:17.429Z,101474.63
2023-04-16T17:32:45.813Z,101477.42
2023-04-16T17:35:14.983Z,101478.83
2023-04-16T17:38:36.045Z,101480.41
2023-04-16T17:41:05.812Z,101483.37
2023-04-16T17:43:34.392Z,101484.25
2023-04-16T17:46:28.191Z,101482.33
2023-04-16T17:48:58.087Z,101476.05
2023-04-16T17:51:27.687Z,101477.27
2023-04-16T17:53:56.373Z,101478.67
2023-04-16T17:56:25.157Z,101480.42
2023-04-16T17:58:53.641Z,101481.11
2023-04-16T18:01:22.506Z,101479.02
2023-04-16T18:03:51.672Z,101479.02
2023-04-16T18:06:20.415Z,101485.65
2023-04-16T18:08:48.786Z,101490.55
2023-04-16T18:11:23.318Z,101490.90
2023-04-16T18:13:54.276Z,101491.58
2023-04-16T18:16:23.114Z,101488.27
2023-04-16T18:18:51.521Z,101484.44
2023-04-16T18:21:20.008Z,101485.14
2023-04-16T18:23:48.687Z,101483.23
2023-04-16T18:26:20.450Z,101482.34
2023-04-16T18:28:49.672Z,101483.20
2023-04-16T18:31:21.199Z,101487.73
2023-04-16T18:33:57.218Z,101486.00
2023-04-16T18:36:27.598Z,101485.14
2023-04-16T18:39:01.706Z,101478.33
2023-04-16T18:41:31.599Z,101473.77
2023-04-16T18:44:00.519Z,101469.59
2023-04-16T18:46:57.448Z,101469.77
2023-04-16T18:49:28.793Z,101466.45
2023-04-16T18:51:57.714Z,101466.46
2023-04-16T18:54:26.400Z,101466.64
2023-04-16T18:57:04.068Z,101465.77
2023-04-16T18:59:32.873Z,101462.63
2023-04-16T19:02:01.771Z,101466.81
2023-04-16T19:04:30.815Z,101471.51
2023-04-16T19:07:00.237Z,101465.93
2023-04-16T19:09:28.831Z,101461.39
2023-04-16T19:11:59.168Z,101465.59
2023-04-16T19:14:28.612Z,101473.27
2023-04-16T19:16:58.802Z,101473.09
2023-04-16T19:19:27.772Z,101469.61
2023-04-16T19:21:56.591Z,101468.21
2023-04-16T19:24:25.862Z,101468.55
2023-04-16T19:26:54.341Z,101466.64
2023-04-16T19:29:23.335Z,101466.80
2023-04-16T19:31:52.238Z,101469.77
2023-04-16T19:34:20.972Z,101474.13
2023-04-16T19:36:49.726Z,101471.52
2023-04-16T19:39:18.481Z,101465.94
2023-04-16T19:41:47.082Z,101468.92
2023-04-16T19:44:16.237Z,101464.57
2023-04-16T19:46:44.844Z,101461.41
2023-04-16T19:49:13.621Z,101465.96
2023-04-16T19:51:42.453Z,101461.27
2023-04-16T19:54:11.220Z,101453.41
2023-04-16T19:56:39.690Z,101451.85
2023-04-16T19:59:08.176Z,101448.55
2023-04-16T20:01:37.427Z,101448.73
2023-04-16T20:04:07.317Z,101448.38
2023-04-16T20:06:36.181Z,101452.73
2023-04-16T20:09:05.282Z,101452.56
2023-04-16T20:11:59.145Z,101458.31
2023-04-16T20:14:27.732Z,101459.02
2023-04-16T20:16:56.241Z,101456.05
2023-04-16T20:19:31.657Z,101457.79
2023-04-16T20:22:00.743Z,101457.61
2023-04-16T20:24:31.314Z,101455.34
2023-04-16T20:27:00.056Z,101457.09
2023-04-16T20:29:31.893Z,101454.30
2023-04-16T20:32:06.054Z,101455.17
2023-04-16T20:34:34.738Z,101459.01
2023-04-16T20:37:03.304Z,101455.17
2023-04-16T20:39:34.230Z,101455.70
2023-04-16T20:42:04.508Z,101456.57
2023-04-16T20:44:40.590Z,101450.64
2023-04-16T20:47:11.138Z,101452.03
2023-04-16T20:49:40.578Z,101445.24
2023-04-16T20:52:09.077Z,101443.84
2023-04-16T20:54:37.937Z,101436.52
2023-04-16T20:57:06.717Z,101442.45
2023-04-16T20:59:37.172Z,101442.97
2023-04-16T21:02:07.044Z,101439.48
2023-04-16T21:04:35.634Z,101441.22
2023-04-16T21:07:04.516Z,101442.98
2023-04-16T21:09:33.026Z,101440.00
2023-04-16T21:12:04.538Z,101437.57
2023-04-16T21:14:33.152Z,101426.42
2023-04-16T21:17:01.882Z,101431.11
2023-04-16T21:20:20.904Z,101429.20
2023-04-16T21:22:57.106Z,101428.15
2023-04-16T21:25:26.060Z,101428.50
2023-04-16T21:28:35.095Z,101430.41
2023-04-16T21:31:03.689Z,101427.11
2023-04-16T21:36:49.326Z,101415.78
2023-04-16T21:39:56.358Z,101412.46
2023-04-16T21:42:42.981Z,101406.37
2023-04-16T21:45:11.710Z,101407.59
2023-04-16T21:47:40.793Z,101400.79
2023-04-16T21:50:28.694Z,101401.48
2023-04-16T21:53:23.885Z,101405.67
2023-04-16T21:55:52.468Z,101409.51
2023-04-16T21:58:36.120Z,101414.73
2023-04-16T22:01:09.556Z,101413.35
2023-04-16T22:04:26.625Z,101412.47
2023-04-16T22:07:17.180Z,101404.09
2023-04-16T22:10:04.478Z,101407.06
2023-04-16T22:13:02.034Z,101407.06
2023-04-16T22:15:56.277Z,101408.98
2023-04-16T22:18:50.285Z,101414.20
2023-04-16T22:21:18.966Z,101416.48
2023-04-16T22:24:18.055Z,101420.48
2023-04-16T22:26:58.213Z,101425.02
2023-04-16T22:42:48.759Z,101425.02
2023-04-16T22:45:34.909Z,101425.55
2023-04-16T22:48:27.340Z,101421.70
2023-04-16T22:50:56.432Z,101413.51
2023-04-16T22:53:52.153Z,101409.49
2023-04-16T22:57:45.536Z,101411.41
2023-04-16T23:00:46.477Z,101408.61
2023-04-16T23:04:07.532Z,101405.30
2023-04-16T23:08:24.418Z,101408.26
2023-04-16T23:12:03.128Z,101407.05
2023-04-16T23:19:59.080Z,101403.05
2023-04-16T23:23:20.600Z,101399.21
2023-04-16T23:25:56.766Z,101399.39
2023-04-16T23:28:30.575Z,101396.95
2023-04-16T23:31:43.219Z,101393.80
2023-04-16T23:34:43.161Z,101394.68
2023-04-16T23:37:57.664Z,101397.64
2023-04-16T23:41:27.242Z,101398.86
2023-04-16T23:44:53.279Z,101397.11
2023-04-16T23:48:14.696Z,101396.44
2023-04-16T23:51:39.763Z,101396.42
2023-04-16T23:55:12.878Z,101396.77
2023-04-16T23:58:31.073Z,101395.90
